sensor_id;sensor_type;location;lat;lon;timestamp;temperature;humidity
12115;DHT22;6121;49.810;6.418;2023-05-27T00:00:06;13.60;93.50
12115;DHT22;6121;49.810;6.418;2023-05-27T00:02:33;13.60;93.20
12115;DHT22;6121;49.810;6.418;2023-05-27T00:04:59;13.50;93.20
12115;DHT22;6121;49.810;6.418;2023-05-27T00:07:25;13.50;93.40
12115;DHT22;6121;49.810;6.418;2023-05-27T00:09:51;13.40;93.40
12115;DHT22;6121;49.810;6.418;2023-05-27T00:12:17;13.20;93.40
12115;DHT22;6121;49.810;6.418;2023-05-27T00:14:43;13.10;93.60
12115;DHT22;6121;49.810;6.418;2023-05-27T00:17:09;13.10;93.90
12115;DHT22;6121;49.810;6.418;2023-05-27T00:19:40;13.20;94.20
12115;DHT22;6121;49.810;6.418;2023-05-27T00:22:06;13.20;93.90
12115;DHT22;6121;49.810;6.418;2023-05-27T00:24:34;13.20;93.90
12115;DHT22;6121;49.810;6.418;2023-05-27T00:27:05;13.00;94.20
12115;DHT22;6121;49.810;6.418;2023-05-27T00:29:32;13.00;94.70
12115;DHT22;6121;49.810;6.418;2023-05-27T00:32:03;13.00;94.70
12115;DHT22;6121;49.810;6.418;2023-05-27T00:34:32;13.10;94.70
12115;DHT22;6121;49.810;6.418;2023-05-27T00:36:59;12.80;94.90
12115;DHT22;6121;49.810;6.418;2023-05-27T00:39:25;12.60;95.30
12115;DHT22;6121;49.810;6.418;2023-05-27T00:41:53;12.70;95.50
12115;DHT22;6121;49.810;6.418;2023-05-27T00:44:20;12.80;95.40
12115;DHT22;6121;49.810;6.418;2023-05-27T00:46:47;12.80;95.40
12115;DHT22;6121;49.810;6.418;2023-05-27T00:49:13;12.70;95.30
12115;DHT22;6121;49.810;6.418;2023-05-27T00:51:39;12.40;95.40
12115;DHT22;6121;49.810;6.418;2023-05-27T00:54:07;12.20;96.00
12115;DHT22;6121;49.810;6.418;2023-05-27T00:56:33;12.10;96.20
12115;DHT22;6121;49.810;6.418;2023-05-27T00:59:01;12.20;96.10
12115;DHT22;6121;49.810;6.418;2023-05-27T01:01:27;12.30;96.00
12115;DHT22;6121;49.810;6.418;2023-05-27T01:03:55;12.20;96.00
12115;DHT22;6121;49.810;6.418;2023-05-27T01:06:32;12.00;96.30
12115;DHT22;6121;49.810;6.418;2023-05-27T01:12:16;12.10;96.20
12115;DHT22;6121;49.810;6.418;2023-05-27T01:14:44;12.20;96.10
12115;DHT22;6121;49.810;6.418;2023-05-27T01:17:12;12.10;96.40
12115;DHT22;6121;49.810;6.418;2023-05-27T01:19:41;11.90;97.00
12115;DHT22;6121;49.810;6.418;2023-05-27T01:22:11;11.80;97.20
12115;DHT22;6121;49.810;6.418;2023-05-27T01:24:37;11.80;97.40
12115;DHT22;6121;49.810;6.418;2023-05-27T01:27:03;11.70;97.20
12115;DHT22;6121;49.810;6.418;2023-05-27T01:29:30;11.60;97.20
12115;DHT22;6121;49.810;6.418;2023-05-27T01:35:06;11.50;97.40
12115;DHT22;6121;49.810;6.418;2023-05-27T01:37:36;11.40;97.50
12115;DHT22;6121;49.810;6.418;2023-05-27T01:40:03;11.50;97.20
12115;DHT22;6121;49.810;6.418;2023-05-27T01:42:34;11.40;97.20
12115;DHT22;6121;49.810;6.418;2023-05-27T01:45:05;11.30;97.40
12115;DHT22;6121;49.810;6.418;2023-05-27T01:47:32;11.20;97.30
12115;DHT22;6121;49.810;6.418;2023-05-27T01:49:58;11.30;97.40
12115;DHT22;6121;49.810;6.418;2023-05-27T01:52:24;11.30;97.20
12115;DHT22;6121;49.810;6.418;2023-05-27T01:54:51;11.30;97.20
12115;DHT22;6121;49.810;6.418;2023-05-27T01:57:17;11.30;97.50
12115;DHT22;6121;49.810;6.418;2023-05-27T01:59:46;11.20;97.60
12115;DHT22;6121;49.810;6.418;2023-05-27T02:02:13;11.30;97.50
12115;DHT22;6121;49.810;6.418;2023-05-27T02:04:39;11.30;97.40
12115;DHT22;6121;49.810;6.418;2023-05-27T02:07:06;11.10;97.50
12115;DHT22;6121;49.810;6.418;2023-05-27T02:09:32;11.30;97.50
12115;DHT22;6121;49.810;6.418;2023-05-27T02:11:58;11.30;97.40
12115;DHT22;6121;49.810;6.418;2023-05-27T02:14:26;11.30;97.50
12115;DHT22;6121;49.810;6.418;2023-05-27T02:16:51;11.30;97.50
12115;DHT22;6121;49.810;6.418;2023-05-27T02:19:17;11.10;97.90
12115;DHT22;6121;49.810;6.418;2023-05-27T02:21:46;11.00;97.90
12115;DHT22;6121;49.810;6.418;2023-05-27T02:24:12;10.90;98.20
12115;DHT22;6121;49.810;6.418;2023-05-27T02:26:38;11.00;98.10
12115;DHT22;6121;49.810;6.418;2023-05-27T02:29:04;11.00;98.10
12115;DHT22;6121;49.810;6.418;2023-05-27T02:31:30;11.10;98.00
12115;DHT22;6121;49.810;6.418;2023-05-27T02:33:56;11.20;98.00
12115;DHT22;6121;49.810;6.418;2023-05-27T02:36:22;11.10;98.20
12115;DHT22;6121;49.810;6.418;2023-05-27T02:38:49;10.90;98.50
12115;DHT22;6121;49.810;6.418;2023-05-27T02:41:16;11.00;98.70
12115;DHT22;6121;49.810;6.418;2023-05-27T02:43:42;10.90;98.80
12115;DHT22;6121;49.810;6.418;2023-05-27T02:46:08;10.60;99.30
12115;DHT22;6121;49.810;6.418;2023-05-27T02:48:34;10.80;99.50
12115;DHT22;6121;49.810;6.418;2023-05-27T02:51:00;10.80;99.60
12115;DHT22;6121;49.810;6.418;2023-05-27T02:53:27;10.70;99.80
12115;DHT22;6121;49.810;6.418;2023-05-27T02:55:52;10.60;99.90
12115;DHT22;6121;49.810;6.418;2023-05-27T02:58:19;10.60;99.90
12115;DHT22;6121;49.810;6.418;2023-05-27T03:00:44;10.40;99.90
12115;DHT22;6121;49.810;6.418;2023-05-27T03:03:11;10.50;99.90
12115;DHT22;6121;49.810;6.418;2023-05-27T03:05:38;10.50;99.90
12115;DHT22;6121;49.810;6.418;2023-05-27T03:08:06;10.50;99.80
12115;DHT22;6121;49.810;6.418;2023-05-27T03:10:35;10.60;99.70
12115;DHT22;6121;49.810;6.418;2023-05-27T03:13:01;10.60;99.50
12115;DHT22;6121;49.810;6.418;2023-05-27T03:15:27;10.60;99.50
12115;DHT22;6121;49.810;6.418;2023-05-27T03:17:57;10.70;99.60
12115;DHT22;6121;49.810;6.418;2023-05-27T03:20:22;10.60;99.70
12115;DHT22;6121;49.810;6.418;2023-05-27T03:22:49;10.60;99.90
12115;DHT22;6121;49.810;6.418;2023-05-27T03:25:16;10.60;99.90
12115;DHT22;6121;49.810;6.418;2023-05-27T03:27:42;10.60;99.90
12115;DHT22;6121;49.810;6.418;2023-05-27T03:30:12;10.50;99.90
12115;DHT22;6121;49.810;6.418;2023-05-27T03:32:43;10.40;99.90
12115;DHT22;6121;49.810;6.418;2023-05-27T03:35:10;10.30;99.90
12115;DHT22;6121;49.810;6.418;2023-05-27T03:37:36;10.50;99.90
12115;DHT22;6121;49.810;6.418;2023-05-27T03:40:06;10.60;99.90
12115;DHT22;6121;49.810;6.418;2023-05-27T03:42:33;10.60;99.90
12115;DHT22;6121;49.810;6.418;2023-05-27T03:44:59;10.60;99.90
12115;DHT22;6121;49.810;6.418;2023-05-27T03:47:27;10.60;99.90
12115;DHT22;6121;49.810;6.418;2023-05-27T03:49:52;10.60;99.90
12115;DHT22;6121;49.810;6.418;2023-05-27T03:52:18;10.50;99.90
12115;DHT22;6121;49.810;6.418;2023-05-27T03:54:44;10.50;99.90
12115;DHT22;6121;49.810;6.418;2023-05-27T03:57:10;10.40;99.90
12115;DHT22;6121;49.810;6.418;2023-05-27T03:59:36;10.20;99.90
12115;DHT22;6121;49.810;6.418;2023-05-27T04:02:03;10.20;99.90
12115;DHT22;6121;49.810;6.418;2023-05-27T04:04:29;10.10;99.90
12115;DHT22;6121;49.810;6.418;2023-05-27T04:06:55;10.10;99.90
12115;DHT22;6121;49.810;6.418;2023-05-27T04:09:22;10.00;99.90
12115;DHT22;6121;49.810;6.418;2023-05-27T04:11:48;10.10;99.90
12115;DHT22;6121;49.810;6.418;2023-05-27T04:14:14;10.10;99.90
12115;DHT22;6121;49.810;6.418;2023-05-27T04:16:40;10.20;99.90
12115;DHT22;6121;49.810;6.418;2023-05-27T04:19:07;10.20;99.90
12115;DHT22;6121;49.810;6.418;2023-05-27T04:21:33;10.20;99.90
12115;DHT22;6121;49.810;6.418;2023-05-27T04:24:02;10.20;99.90
12115;DHT22;6121;49.810;6.418;2023-05-27T04:26:29;10.30;99.90
12115;DHT22;6121;49.810;6.418;2023-05-27T04:28:54;10.30;99.90
12115;DHT22;6121;49.810;6.418;2023-05-27T04:31:21;10.40;99.90
12115;DHT22;6121;49.810;6.418;2023-05-27T04:33:55;10.40;99.90
12115;DHT22;6121;49.810;6.418;2023-05-27T04:36:21;10.50;99.90
12115;DHT22;6121;49.810;6.418;2023-05-27T04:39:11;10.50;99.90
12115;DHT22;6121;49.810;6.418;2023-05-27T04:41:40;10.50;99.90
12115;DHT22;6121;49.810;6.418;2023-05-27T04:44:22;10.50;99.90
12115;DHT22;6121;49.810;6.418;2023-05-27T04:46:51;10.40;99.90
12115;DHT22;6121;49.810;6.418;2023-05-27T04:49:18;10.50;99.90
12115;DHT22;6121;49.810;6.418;2023-05-27T04:51:44;10.50;99.90
12115;DHT22;6121;49.810;6.418;2023-05-27T04:54:12;10.60;99.90
12115;DHT22;6121;49.810;6.418;2023-05-27T04:56:38;10.60;99.90
12115;DHT22;6121;49.810;6.418;2023-05-27T04:59:04;10.70;99.90
12115;DHT22;6121;49.810;6.418;2023-05-27T05:01:33;10.80;99.90
12115;DHT22;6121;49.810;6.418;2023-05-27T05:04:19;10.80;99.90
12115;DHT22;6121;49.810;6.418;2023-05-27T05:06:58;11.00;99.90
12115;DHT22;6121;49.810;6.418;2023-05-27T05:09:26;11.10;99.90
12115;DHT22;6121;49.810;6.418;2023-05-27T05:11:52;11.10;99.90
12115;DHT22;6121;49.810;6.418;2023-05-27T05:14:18;11.20;99.90
12115;DHT22;6121;49.810;6.418;2023-05-27T05:16:44;11.40;99.90
12115;DHT22;6121;49.810;6.418;2023-05-27T05:19:13;11.50;99.90
12115;DHT22;6121;49.810;6.418;2023-05-27T05:21:41;11.60;99.90
12115;DHT22;6121;49.810;6.418;2023-05-27T05:24:09;11.70;99.90
12115;DHT22;6121;49.810;6.418;2023-05-27T05:26:38;11.90;99.90
12115;DHT22;6121;49.810;6.418;2023-05-27T05:29:04;12.10;99.90
12115;DHT22;6121;49.810;6.418;2023-05-27T05:31:30;12.40;99.80
12115;DHT22;6121;49.810;6.418;2023-05-27T05:33:56;12.60;99.50
12115;DHT22;6121;49.810;6.418;2023-05-27T05:36:22;12.80;99.10
12115;DHT22;6121;49.810;6.418;2023-05-27T05:38:59;13.00;98.70
12115;DHT22;6121;49.810;6.418;2023-05-27T05:41:25;13.20;98.50
12115;DHT22;6121;49.810;6.418;2023-05-27T05:43:52;13.20;98.00
12115;DHT22;6121;49.810;6.418;2023-05-27T05:46:18;13.40;97.90
12115;DHT22;6121;49.810;6.418;2023-05-27T05:48:45;13.50;97.80
12115;DHT22;6121;49.810;6.418;2023-05-27T05:51:14;13.60;97.80
12115;DHT22;6121;49.810;6.418;2023-05-27T05:53:43;13.80;97.50
12115;DHT22;6121;49.810;6.418;2023-05-27T05:56:09;13.90;97.30
12115;DHT22;6121;49.810;6.418;2023-05-27T05:58:36;14.00;97.20
12115;DHT22;6121;49.810;6.418;2023-05-27T06:01:02;14.10;96.70
12115;DHT22;6121;49.810;6.418;2023-05-27T06:03:41;14.20;96.60
12115;DHT22;6121;49.810;6.418;2023-05-27T06:06:10;14.30;96.40
12115;DHT22;6121;49.810;6.418;2023-05-27T06:08:52;14.50;96.30
12115;DHT22;6121;49.810;6.418;2023-05-27T06:11:18;14.60;96.20
12115;DHT22;6121;49.810;6.418;2023-05-27T06:13:44;14.80;96.20
12115;DHT22;6121;49.810;6.418;2023-05-27T06:16:13;15.00;95.90
12115;DHT22;6121;49.810;6.418;2023-05-27T06:18:39;15.00;95.40
12115;DHT22;6121;49.810;6.418;2023-05-27T06:21:05;14.90;95.40
12115;DHT22;6121;49.810;6.418;2023-05-27T06:23:49;15.10;95.20
12115;DHT22;6121;49.810;6.418;2023-05-27T06:26:17;15.40;95.10
12115;DHT22;6121;49.810;6.418;2023-05-27T06:28:48;15.50;94.80
12115;DHT22;6121;49.810;6.418;2023-05-27T06:31:15;15.60;94.60
12115;DHT22;6121;49.810;6.418;2023-05-27T06:33:44;15.60;94.40
12115;DHT22;6121;49.810;6.418;2023-05-27T06:36:10;15.70;94.40
12115;DHT22;6121;49.810;6.418;2023-05-27T06:38:38;15.90;94.40
12115;DHT22;6121;49.810;6.418;2023-05-27T06:41:07;15.80;94.10
12115;DHT22;6121;49.810;6.418;2023-05-27T06:43:34;15.90;94.30
12115;DHT22;6121;49.810;6.418;2023-05-27T06:46:21;16.20;93.80
12115;DHT22;6121;49.810;6.418;2023-05-27T06:49:01;16.40;93.80
12115;DHT22;6121;49.810;6.418;2023-05-27T06:51:29;16.40;93.40
12115;DHT22;6121;49.810;6.418;2023-05-27T06:53:56;16.60;93.30
12115;DHT22;6121;49.810;6.418;2023-05-27T06:56:28;16.60;93.10
12115;DHT22;6121;49.810;6.418;2023-05-27T06:59:09;16.80;93.00
12115;DHT22;6121;49.810;6.418;2023-05-27T07:01:35;17.00;92.80
12115;DHT22;6121;49.810;6.418;2023-05-27T07:04:03;17.20;92.70
12115;DHT22;6121;49.810;6.418;2023-05-27T07:06:52;17.20;92.20
12115;DHT22;6121;49.810;6.418;2023-05-27T07:09:19;17.20;92.30
12115;DHT22;6121;49.810;6.418;2023-05-27T07:11:46;17.30;92.20
12115;DHT22;6121;49.810;6.418;2023-05-27T07:14:28;17.20;92.20
12115;DHT22;6121;49.810;6.418;2023-05-27T07:16:54;17.50;92.40
12115;DHT22;6121;49.810;6.418;2023-05-27T07:19:21;17.70;91.90
12115;DHT22;6121;49.810;6.418;2023-05-27T07:21:53;17.90;91.30
12115;DHT22;6121;49.810;6.418;2023-05-27T07:24:22;17.80;91.00
12115;DHT22;6121;49.810;6.418;2023-05-27T07:26:49;18.00;90.90
12115;DHT22;6121;49.810;6.418;2023-05-27T07:29:16;18.10;90.80
12115;DHT22;6121;49.810;6.418;2023-05-27T07:31:51;18.00;90.70
12115;DHT22;6121;49.810;6.418;2023-05-27T07:34:19;17.90;90.50
12115;DHT22;6121;49.810;6.418;2023-05-27T07:36:47;18.00;90.80
12115;DHT22;6121;49.810;6.418;2023-05-27T07:39:13;18.30;90.70
12115;DHT22;6121;49.810;6.418;2023-05-27T07:41:39;18.40;90.60
12115;DHT22;6121;49.810;6.418;2023-05-27T07:44:05;18.80;90.60
12115;DHT22;6121;49.810;6.418;2023-05-27T07:46:31;18.80;89.70
12115;DHT22;6121;49.810;6.418;2023-05-27T07:48:58;18.90;89.50
12115;DHT22;6121;49.810;6.418;2023-05-27T07:51:24;19.20;89.60
12115;DHT22;6121;49.810;6.418;2023-05-27T07:53:50;19.50;88.70
12115;DHT22;6121;49.810;6.418;2023-05-27T07:56:17;19.30;87.50
12115;DHT22;6121;49.810;6.418;2023-05-27T07:58:43;19.30;87.80
12115;DHT22;6121;49.810;6.418;2023-05-27T08:01:11;19.40;87.00
12115;DHT22;6121;49.810;6.418;2023-05-27T08:03:52;19.60;87.60
12115;DHT22;6121;49.810;6.418;2023-05-27T08:06:56;19.50;86.60
12115;DHT22;6121;49.810;6.418;2023-05-27T08:09:41;19.60;85.90
12115;DHT22;6121;49.810;6.418;2023-05-27T08:12:24;19.60;87.10
12115;DHT22;6121;49.810;6.418;2023-05-27T08:15:13;20.10;85.40
12115;DHT22;6121;49.810;6.418;2023-05-27T08:17:44;20.20;84.20
12115;DHT22;6121;49.810;6.418;2023-05-27T08:20:19;20.30;84.20
12115;DHT22;6121;49.810;6.418;2023-05-27T08:23:10;20.50;83.80
12115;DHT22;6121;49.810;6.418;2023-05-27T08:25:48;20.50;83.40
12115;DHT22;6121;49.810;6.418;2023-05-27T08:28:21;20.30;84.00
12115;DHT22;6121;49.810;6.418;2023-05-27T08:31:10;20.50;82.70
12115;DHT22;6121;49.810;6.418;2023-05-27T08:33:39;20.40;83.90
12115;DHT22;6121;49.810;6.418;2023-05-27T08:36:06;20.80;83.90
12115;DHT22;6121;49.810;6.418;2023-05-27T08:38:33;20.80;83.30
12115;DHT22;6121;49.810;6.418;2023-05-27T08:41:17;21.20;83.10
12115;DHT22;6121;49.810;6.418;2023-05-27T08:43:43;21.70;81.50
12115;DHT22;6121;49.810;6.418;2023-05-27T08:46:12;21.90;81.60
12115;DHT22;6121;49.810;6.418;2023-05-27T08:48:38;22.30;81.80
12115;DHT22;6121;49.810;6.418;2023-05-27T08:51:05;21.90;79.10
12115;DHT22;6121;49.810;6.418;2023-05-27T08:53:32;21.80;80.40
12115;DHT22;6121;49.810;6.418;2023-05-27T08:56:00;21.90;80.20
12115;DHT22;6121;49.810;6.418;2023-05-27T08:58:30;22.10;80.00
12115;DHT22;6121;49.810;6.418;2023-05-27T09:00:58;22.40;79.90
12115;DHT22;6121;49.810;6.418;2023-05-27T09:03:25;22.90;78.80
12115;DHT22;6121;49.810;6.418;2023-05-27T09:05:54;22.90;78.70
12115;DHT22;6121;49.810;6.418;2023-05-27T09:08:21;22.30;78.70
12115;DHT22;6121;49.810;6.418;2023-05-27T09:10:47;22.30;78.90
12115;DHT22;6121;49.810;6.418;2023-05-27T09:13:12;22.30;79.60
12115;DHT22;6121;49.810;6.418;2023-05-27T09:15:40;22.60;78.80
12115;DHT22;6121;49.810;6.418;2023-05-27T09:18:06;22.80;78.90
12115;DHT22;6121;49.810;6.418;2023-05-27T09:20:32;22.30;78.20
12115;DHT22;6121;49.810;6.418;2023-05-27T09:22:59;22.20;78.70
12115;DHT22;6121;49.810;6.418;2023-05-27T09:25:26;22.60;77.90
12115;DHT22;6121;49.810;6.418;2023-05-27T09:27:54;22.80;77.80
12115;DHT22;6121;49.810;6.418;2023-05-27T09:30:21;22.80;77.80
12115;DHT22;6121;49.810;6.418;2023-05-27T09:32:50;22.70;78.20
12115;DHT22;6121;49.810;6.418;2023-05-27T09:35:17;23.20;78.00
12115;DHT22;6121;49.810;6.418;2023-05-27T09:37:43;23.30;77.50
12115;DHT22;6121;49.810;6.418;2023-05-27T09:40:14;23.70;78.00
12115;DHT22;6121;49.810;6.418;2023-05-27T09:45:12;24.50;75.60
12115;DHT22;6121;49.810;6.418;2023-05-27T09:47:40;24.10;74.50
12115;DHT22;6121;49.810;6.418;2023-05-27T09:50:08;24.00;74.90
12115;DHT22;6121;49.810;6.418;2023-05-27T09:52:38;24.60;75.30
12115;DHT22;6121;49.810;6.418;2023-05-27T09:55:11;25.10;74.70
12115;DHT22;6121;49.810;6.418;2023-05-27T09:57:39;25.30;72.90
12115;DHT22;6121;49.810;6.418;2023-05-27T10:00:07;25.00;73.40
12115;DHT22;6121;49.810;6.418;2023-05-27T10:02:43;24.90;73.40
12115;DHT22;6121;49.810;6.418;2023-05-27T10:05:11;24.80;72.80
12115;DHT22;6121;49.810;6.418;2023-05-27T10:07:40;24.90;71.90
12115;DHT22;6121;49.810;6.418;2023-05-27T10:10:11;24.60;72.40
12115;DHT22;6121;49.810;6.418;2023-05-27T10:12:39;25.00;72.90
12115;DHT22;6121;49.810;6.418;2023-05-27T10:15:07;24.70;72.50
12115;DHT22;6121;49.810;6.418;2023-05-27T10:18:10;24.70;72.40
12115;DHT22;6121;49.810;6.418;2023-05-27T10:20:41;24.60;73.60
12115;DHT22;6121;49.810;6.418;2023-05-27T10:23:28;25.50;72.20
12115;DHT22;6121;49.810;6.418;2023-05-27T10:25:57;26.00;71.00
12115;DHT22;6121;49.810;6.418;2023-05-27T10:31:02;26.50;70.10
12115;DHT22;6121;49.810;6.418;2023-05-27T10:33:29;26.70;68.50
12115;DHT22;6121;49.810;6.418;2023-05-27T10:36:02;26.30;69.40
12115;DHT22;6121;49.810;6.418;2023-05-27T10:38:28;26.00;70.00
12115;DHT22;6121;49.810;6.418;2023-05-27T10:40:59;25.90;69.90
12115;DHT22;6121;49.810;6.418;2023-05-27T10:43:28;25.80;69.60
12115;DHT22;6121;49.810;6.418;2023-05-27T10:46:12;26.10;70.10
12115;DHT22;6121;49.810;6.418;2023-05-27T10:48:38;26.80;68.40
12115;DHT22;6121;49.810;6.418;2023-05-27T10:51:06;27.10;67.70
12115;DHT22;6121;49.810;6.418;2023-05-27T10:53:35;26.60;68.30
12115;DHT22;6121;49.810;6.418;2023-05-27T10:56:01;26.70;67.90
12115;DHT22;6121;49.810;6.418;2023-05-27T10:58:28;26.90;67.40
12115;DHT22;6121;49.810;6.418;2023-05-27T11:00:55;26.50;67.50
12115;DHT22;6121;49.810;6.418;2023-05-27T11:03:24;26.40;69.20
12115;DHT22;6121;49.810;6.418;2023-05-27T11:06:00;26.70;67.90
12115;DHT22;6121;49.810;6.418;2023-05-27T11:08:27;26.20;68.70
12115;DHT22;6121;49.810;6.418;2023-05-27T11:11:05;26.60;68.20
12115;DHT22;6121;49.810;6.418;2023-05-27T11:13:33;26.10;69.30
12115;DHT22;6121;49.810;6.418;2023-05-27T11:16:01;26.40;68.50
12115;DHT22;6121;49.810;6.418;2023-05-27T11:21:00;26.00;68.70
12115;DHT22;6121;49.810;6.418;2023-05-27T11:23:46;26.20;69.00
12115;DHT22;6121;49.810;6.418;2023-05-27T11:26:16;26.10;69.80
12115;DHT22;6121;49.810;6.418;2023-05-27T11:28:49;26.30;68.90
12115;DHT22;6121;49.810;6.418;2023-05-27T11:31:16;26.40;68.60
12115;DHT22;6121;49.810;6.418;2023-05-27T11:33:44;26.40;68.40
12115;DHT22;6121;49.810;6.418;2023-05-27T11:36:14;26.70;68.50
12115;DHT22;6121;49.810;6.418;2023-05-27T11:38:58;26.70;67.70
12115;DHT22;6121;49.810;6.418;2023-05-27T11:41:26;25.90;68.20
12115;DHT22;6121;49.810;6.418;2023-05-27T11:44:05;25.70;69.10
12115;DHT22;6121;49.810;6.418;2023-05-27T11:46:42;25.50;69.60
12115;DHT22;6121;49.810;6.418;2023-05-27T11:49:10;25.70;69.60
12115;DHT22;6121;49.810;6.418;2023-05-27T11:51:43;26.20;69.20
12115;DHT22;6121;49.810;6.418;2023-05-27T11:54:20;26.50;68.80
12115;DHT22;6121;49.810;6.418;2023-05-27T11:56:48;26.30;69.40
12115;DHT22;6121;49.810;6.418;2023-05-27T11:59:14;26.50;68.20
12115;DHT22;6121;49.810;6.418;2023-05-27T12:01:41;26.40;67.40
12115;DHT22;6121;49.810;6.418;2023-05-27T12:04:07;26.40;67.20
12115;DHT22;6121;49.810;6.418;2023-05-27T12:06:33;26.30;67.80
12115;DHT22;6121;49.810;6.418;2023-05-27T12:08:59;26.20;68.50
12115;DHT22;6121;49.810;6.418;2023-05-27T12:11:25;26.10;67.20
12115;DHT22;6121;49.810;6.418;2023-05-27T12:13:53;26.10;67.30
12115;DHT22;6121;49.810;6.418;2023-05-27T12:16:22;25.60;67.00
12115;DHT22;6121;49.810;6.418;2023-05-27T12:18:47;25.70;67.30
12115;DHT22;6121;49.810;6.418;2023-05-27T12:21:15;25.80;67.30
12115;DHT22;6121;49.810;6.418;2023-05-27T12:23:41;25.80;67.40
12115;DHT22;6121;49.810;6.418;2023-05-27T12:26:07;25.70;68.00
12115;DHT22;6121;49.810;6.418;2023-05-27T12:28:33;25.70;67.80
12115;DHT22;6121;49.810;6.418;2023-05-27T12:30:58;25.70;67.90
12115;DHT22;6121;49.810;6.418;2023-05-27T12:33:24;25.50;68.50
12115;DHT22;6121;49.810;6.418;2023-05-27T12:35:52;25.50;67.90
12115;DHT22;6121;49.810;6.418;2023-05-27T12:38:18;25.10;68.60
12115;DHT22;6121;49.810;6.418;2023-05-27T12:40:44;24.80;69.20
12115;DHT22;6121;49.810;6.418;2023-05-27T12:43:10;24.80;69.50
12115;DHT22;6121;49.810;6.418;2023-05-27T12:45:36;25.10;69.20
12115;DHT22;6121;49.810;6.418;2023-05-27T12:48:02;25.30;69.00
12115;DHT22;6121;49.810;6.418;2023-05-27T12:50:28;25.30;67.50
12115;DHT22;6121;49.810;6.418;2023-05-27T12:52:55;25.20;67.20
12115;DHT22;6121;49.810;6.418;2023-05-27T12:55:21;25.40;67.20
12115;DHT22;6121;49.810;6.418;2023-05-27T12:57:48;25.20;66.80
12115;DHT22;6121;49.810;6.418;2023-05-27T13:00:16;25.00;67.20
12115;DHT22;6121;49.810;6.418;2023-05-27T13:02:43;25.30;67.30
12115;DHT22;6121;49.810;6.418;2023-05-27T13:05:09;25.50;65.90
12115;DHT22;6121;49.810;6.418;2023-05-27T13:07:38;25.30;66.00
12115;DHT22;6121;49.810;6.418;2023-05-27T13:10:11;25.50;66.30
12115;DHT22;6121;49.810;6.418;2023-05-27T13:12:43;25.60;66.30
12115;DHT22;6121;49.810;6.418;2023-05-27T13:15:14;25.30;66.10
12115;DHT22;6121;49.810;6.418;2023-05-27T13:17:43;25.20;67.20
12115;DHT22;6121;49.810;6.418;2023-05-27T13:20:09;25.30;65.60
12115;DHT22;6121;49.810;6.418;2023-05-27T13:22:35;25.30;65.40
12115;DHT22;6121;49.810;6.418;2023-05-27T13:25:01;25.20;65.60
12115;DHT22;6121;49.810;6.418;2023-05-27T13:27:28;25.10;65.30
12115;DHT22;6121;49.810;6.418;2023-05-27T13:29:53;25.10;65.50
12115;DHT22;6121;49.810;6.418;2023-05-27T13:32:19;25.00;65.40
12115;DHT22;6121;49.810;6.418;2023-05-27T13:34:45;25.00;65.40
12115;DHT22;6121;49.810;6.418;2023-05-27T13:37:11;24.90;66.40
12115;DHT22;6121;49.810;6.418;2023-05-27T13:39:37;24.80;66.70
12115;DHT22;6121;49.810;6.418;2023-05-27T13:42:09;24.90;66.80
12115;DHT22;6121;49.810;6.418;2023-05-27T13:44:36;25.10;66.60
12115;DHT22;6121;49.810;6.418;2023-05-27T13:47:02;25.10;66.40
12115;DHT22;6121;49.810;6.418;2023-05-27T13:49:28;25.20;66.60
12115;DHT22;6121;49.810;6.418;2023-05-27T13:51:54;24.80;66.00
12115;DHT22;6121;49.810;6.418;2023-05-27T13:54:19;24.90;65.70
12115;DHT22;6121;49.810;6.418;2023-05-27T13:56:45;25.20;65.10
12115;DHT22;6121;49.810;6.418;2023-05-27T13:59:11;25.30;64.40
12115;DHT22;6121;49.810;6.418;2023-05-27T14:01:39;25.30;63.60
12115;DHT22;6121;49.810;6.418;2023-05-27T14:04:06;25.20;64.50
12115;DHT22;6121;49.810;6.418;2023-05-27T14:06:32;25.10;63.40
12115;DHT22;6121;49.810;6.418;2023-05-27T14:08:58;25.10;63.70
12115;DHT22;6121;49.810;6.418;2023-05-27T14:11:24;25.10;63.30
12115;DHT22;6121;49.810;6.418;2023-05-27T14:13:52;25.10;64.70
12115;DHT22;6121;49.810;6.418;2023-05-27T14:16:20;25.00;64.70
12115;DHT22;6121;49.810;6.418;2023-05-27T14:18:47;24.90;64.40
12115;DHT22;6121;49.810;6.418;2023-05-27T14:21:14;25.00;64.00
12115;DHT22;6121;49.810;6.418;2023-05-27T14:23:40;25.30;63.00
12115;DHT22;6121;49.810;6.418;2023-05-27T14:26:05;25.20;60.80
12115;DHT22;6121;49.810;6.418;2023-05-27T14:28:32;25.20;61.00
12115;DHT22;6121;49.810;6.418;2023-05-27T14:30:58;25.30;61.80
12115;DHT22;6121;49.810;6.418;2023-05-27T14:33:25;25.10;62.80
12115;DHT22;6121;49.810;6.418;2023-05-27T14:35:50;25.20;63.20
12115;DHT22;6121;49.810;6.418;2023-05-27T14:38:17;25.10;62.50
12115;DHT22;6121;49.810;6.418;2023-05-27T14:40:43;25.10;63.90
12115;DHT22;6121;49.810;6.418;2023-05-27T14:43:11;24.70;63.80
12115;DHT22;6121;49.810;6.418;2023-05-27T14:45:38;25.00;63.40
12115;DHT22;6121;49.810;6.418;2023-05-27T14:48:05;25.20;63.50
12115;DHT22;6121;49.810;6.418;2023-05-27T14:50:31;25.10;62.70
12115;DHT22;6121;49.810;6.418;2023-05-27T14:52:57;24.90;62.00
12115;DHT22;6121;49.810;6.418;2023-05-27T14:55:23;25.00;63.20
12115;DHT22;6121;49.810;6.418;2023-05-27T14:57:50;24.90;62.50
12115;DHT22;6121;49.810;6.418;2023-05-27T15:00:16;24.80;62.80
12115;DHT22;6121;49.810;6.418;2023-05-27T15:02:42;24.80;62.60
12115;DHT22;6121;49.810;6.418;2023-05-27T15:05:08;24.80;62.60
12115;DHT22;6121;49.810;6.418;2023-05-27T15:07:36;24.70;62.90
12115;DHT22;6121;49.810;6.418;2023-05-27T15:10:03;24.80;63.20
12115;DHT22;6121;49.810;6.418;2023-05-27T15:12:45;24.90;63.00
12115;DHT22;6121;49.810;6.418;2023-05-27T15:15:17;24.70;64.10
12115;DHT22;6121;49.810;6.418;2023-05-27T15:17:45;24.60;62.50
12115;DHT22;6121;49.810;6.418;2023-05-27T15:20:13;24.50;62.40
12115;DHT22;6121;49.810;6.418;2023-05-27T15:22:39;24.40;62.70
12115;DHT22;6121;49.810;6.418;2023-05-27T15:25:07;24.60;62.70
12115;DHT22;6121;49.810;6.418;2023-05-27T15:27:34;24.80;62.80
12115;DHT22;6121;49.810;6.418;2023-05-27T15:30:04;24.80;63.00
12115;DHT22;6121;49.810;6.418;2023-05-27T15:32:31;24.90;62.20
12115;DHT22;6121;49.810;6.418;2023-05-27T15:34:57;25.00;63.00
12115;DHT22;6121;49.810;6.418;2023-05-27T15:37:26;25.10;64.10
12115;DHT22;6121;49.810;6.418;2023-05-27T15:39:52;24.90;64.60
12115;DHT22;6121;49.810;6.418;2023-05-27T15:42:17;24.70;63.70
12115;DHT22;6121;49.810;6.418;2023-05-27T15:44:43;24.60;64.40
12115;DHT22;6121;49.810;6.418;2023-05-27T15:47:09;24.40;64.70
12115;DHT22;6121;49.810;6.418;2023-05-27T15:49:36;24.60;64.80
12115;DHT22;6121;49.810;6.418;2023-05-27T15:52:02;24.60;64.40
12115;DHT22;6121;49.810;6.418;2023-05-27T15:54:29;24.70;64.60
12115;DHT22;6121;49.810;6.418;2023-05-27T15:56:55;24.70;64.10
12115;DHT22;6121;49.810;6.418;2023-05-27T15:59:21;24.60;64.00
12115;DHT22;6121;49.810;6.418;2023-05-27T16:01:47;24.60;64.80
12115;DHT22;6121;49.810;6.418;2023-05-27T16:04:13;24.60;65.10
12115;DHT22;6121;49.810;6.418;2023-05-27T16:06:39;24.50;64.90